DW2642 Weather Reports


Display with metric or nautical units.
time (UTC)temp
F
wind
direction
speed
MPH
gust
MPH
rain 1hr
in
rain 24hr
in
rain mn
in
humidity
%
barometer
mb
20190822172626 75 0 0.0 0.0 0.00 0.94 0.00 98 1010.8
20190822171552 75 45 0.0 0.0 0.00 0.94 0.00 98 1010.8
20190822170550 75 90 0.0 0.0 0.00 0.94 0.00 98 1010.8
20190822165548 75 90 0.0 0.0 0.00 0.94 0.93 98 1010.8
20190822164546 75 135 0.0 0.0 0.00 0.94 0.93 98 1010.8
20190822163544 75 45 0.0 0.0 0.00 0.94 0.93 98 1010.8
20190822161510 75 45 0.0 0.0 0.00 0.94 0.93 98 1011.2
20190822160436 75 45 0.0 0.0 0.00 0.94 0.93 98 1010.8
20190822155434 75 45 0.0 0.0 0.00 0.94 0.93 98 1011.2
20190822154255 75 45 0.0 0.0 0.00 0.94 0.93 98 1011.2
20190822153221 75 45 0.0 0.0 0.00 0.94 0.93 98 1011.2
20190822152219 75 45 0.0 0.0 0.00 0.94 0.93 98 1011.2
20190822151217 75 45 0.0 0.0 0.00 0.94 0.93 98 1011.2
20190822150111 75 45 0.0 0.0 0.00 0.94 0.93 98 1010.8
20190822145109 75 45 0.0 0.0 0.00 0.94 0.93 98 1010.8
20190822143929 75 45 0.0 0.0 0.02 0.94 0.93 98 1010.8
20190822142855 75 67 0.0 0.0 0.02 0.94 0.93 98 1010.5
20190822141821 75 22 0.0 0.0 0.04 0.94 0.93 97 1010.5
20190822140819 75 45 0.0 0.0 0.04 0.94 0.93 97 1010.2
20190822135745 75 135 0.0 0.0 0.04 0.94 0.93 97 1010.2
20190822134743 75 135 0.0 0.0 0.02 0.92 0.91 97 1010.2
20190822133636 75 135 0.0 0.0 0.04 0.92 0.91 97 1010.2
20190822132634 75 135 0.0 0.0 0.04 0.92 0.91 97 1009.8
20190822131632 75 135 0.0 0.0 0.02 0.90 0.89 96 1009.5
20190822130630 75 135 0.0 0.0 0.04 0.90 0.89 96 1009.5
20190822125628 75 135 0.0 0.0 0.06 0.90 0.89 96 1009.1
20190822124626 76 135 0.0 0.0 0.06 0.88 0.87 96 1008.8
20190822123552 76 112 0.0 0.0 0.12 0.88 0.87 96 1008.8
20190822122341 76 135 0.0 0.0 0.26 0.88 0.87 96 1008.5
20190822121337 76 157 0.0 0.0 0.43 0.88 0.85 96 1008.1
20190822120326 76 135 0.0 0.0 0.43 0.84 0.83 95 1008.1
20190822115324 76 135 0.0 0.0 0.45 0.84 0.83 95 1008.5
20190822114322 77 180 0.0 0.0 0.47 0.82 0.81 94 1008.1
20190822113248 77 135 0.0 5.0 0.41 0.73 0.69 94 1007.8
20190822112213 77 112 0.0 0.0 0.24 0.49 0.47 94 1007.5
20190822111139 78 90 0.0 0.0 0.39 0.43 0.42 92 1007.5
20190822110137 78 180 0.0 0.0 0.39 0.41 0.40 91 1006.8
20190822105135 79 135 0.0 0.0 0.35 0.39 0.36 90 1006.8
20190822103956 80 157 0.0 0.0 0.33 0.37 0.32 88 1006.8
20190822102849 81 90 0.0 2.0 0.24 0.29 0.26 86 1006.8
20190822101848 83 112 1.0 4.0 0.16 0.20 0.10 82 1006.8
20190822100846 86 157 2.0 3.0 0.00 0.04 0.02 78 1006.1
20190822095812 90 22 4.0 4.0 0.00 0.06 0.02 72 1006.1
20190822094633 91 112 0.0 0.0 0.00 0.06 0.02 70 1005.4
20190822093526 90 135 1.0 1.0 0.00 0.06 0.02 73 1005.4
20190822092524 90 22 1.0 1.0 0.00 0.06 0.02 72 1005.4
20190822091523 89 135 0.0 0.0 0.00 0.06 0.02 74 1005.4
20190822090520 89 180 1.0 1.0 0.00 0.06 0.02 75 1005.8
20190822085518 88 157 0.0 0.0 0.00 0.08 0.02 75 1005.8
20190822084517 88 22 0.0 1.0 0.00 0.08 0.02 75 1006.1
20190822083515 88 292 0.0 0.0 0.00 0.08 0.02 75 1006.1
20190822082513 88 157 0.0 0.0 0.00 0.08 0.02 74 1006.1
20190822081511 88 0 0.0 0.0 0.00 0.08 0.02 74 1006.4
20190822080509 88 90 0.0 1.0 0.00 0.08 0.02 75 1006.4
20190822075508 88 67 0.0 0.0 0.00 0.08 0.02 74 1006.4
20190822074506 88 67 0.0 3.0 0.00 0.08 0.02 75 1006.4
20190822073432 88 67 3.0 3.0 0.00 0.08 0.02 76 1006.8
20190822072430 88 202 0.0 0.0 0.00 0.08 0.02 74 1006.8
20190822071428 87 112 0.0 0.0 0.00 0.08 0.02 77 1006.8
20190822070426 87 315 0.0 0.0 0.00 0.08 0.02 78 1006.8
20190822065247 86 90 0.0 0.0 0.00 0.08 0.02 80 1007.1
20190822064245 86 67 0.0 0.0 0.00 0.08 0.02 80 1007.5
20190822062212 85 0 0.0 0.0 0.00 0.08 0.02 80 1007.5
20190822061030 85 292 1.0 1.0 0.00 0.08 0.02 80 1007.8
20190822060029 85 157 0.0 0.0 0.00 0.08 0.02 80 1007.8
20190822054954 86 157 2.0 2.0 0.00 0.12 0.02 79 1007.8
20190822052921 85 157 0.0 1.0 0.00 0.12 0.02 80 1008.5
20190822051847 85 0 0.0 0.0 0.00 0.12 0.02 81 1008.5
20190822050845 85 157 0.0 1.0 0.00 0.12 0.02 80 1008.5
20190822045843 85 22 0.0 3.0 0.00 0.14 0.02 83 1008.8
20190822044841 84 67 0.0 0.0 0.00 0.14 0.02 83 1008.8
20190822043839 84 292 0.0 1.0 0.00 0.14 0.02 84 1009.1
20190822042837 83 67 1.0 1.0 0.00 0.14 0.02 85 1009.1
20190822041835 83 112 0.0 0.0 0.00 0.14 0.02 84 1009.5
20190822034442 82 157 0.0 0.0 0.00 0.14 0.02 86 1009.8
20190822033440 82 90 0.0 0.0 0.00 0.14 0.02 87 1009.8
20190822032301 82 112 0.0 2.0 0.00 0.14 0.02 88 1009.8
20190822031259 81 112 3.0 3.0 0.02 0.14 0.02 89 1009.8
20190822025943 81 180 1.0 1.0 0.02 0.14 0.02 89 1009.8
20190822024941 80 67 1.0 1.0 0.02 0.14 0.02 90 1009.8
20190822023834 80 112 0.0 0.0 0.02 0.14 0.02 91 1010.2
20190822022728 80 247 0.0 0.0 0.02 0.14 0.02 92 1010.2
20190822021726 79 67 0.0 0.0 0.00 0.12 0.00 92 1010.2
20190822020619 79 112 0.0 0.0 0.00 0.12 0.00 93 1010.2
20190822015617 78 135 0.0 0.0 0.00 0.12 0.00 94 1010.2
20190822014543 78 157 0.0 0.0 0.00 0.12 0.00 94 1010.2
20190822013509 78 112 0.0 0.0 0.00 0.12 0.00 95 1009.8
20190822012507 78 112 0.0 0.0 0.00 0.12 0.00 95 1009.8
20190822011505 77 22 0.0 0.0 0.00 0.12 0.00 96 1009.8
20190822010504 77 67 0.0 0.0 0.00 0.12 0.00 96 1009.5
20190822005324 77 180 0.0 0.0 0.00 0.12 0.00 97 1009.5
20190822004250 77 67 0.0 0.0 0.00 0.12 0.00 97 1009.5
20190822003215 77 315 0.0 0.0 0.00 0.12 0.00 97 1009.1
20190822002214 77 112 0.0 0.0 0.00 0.12 0.00 97 1009.1
20190822001212 76 337 0.0 0.0 0.00 0.12 0.00 97 1009.1
20190822000137 76 90 0.0 0.0 0.00 0.12 0.00 97 1009.1
20190821235103 76 247 0.0 0.0 0.00 0.12 0.00 97 1008.8
20190821233957 76 247 0.0 0.0 0.00 0.12 0.00 97 1008.8
20190821232850 76 247 0.0 0.0 0.00 0.12 0.00 97 1008.5
20190821230817 76 292 0.0 0.0 0.00 0.12 0.00 97 1008.5
20190821225710 76 315 0.0 0.0 0.00 0.12 0.00 97 1008.1
20190821223500 76 270 0.0 0.0 0.00 0.12 0.00 97 1008.1
20190821222458 76 157 0.0 0.0 0.00 0.12 0.00 97 1007.8
20190821221456 76 135 0.0 0.0 0.00 0.12 0.00 97 1007.8
20190821220245 77 135 0.0 0.0 0.00 0.12 0.00 97 1007.8
20190821215243 77 135 0.0 0.0 0.00 0.12 0.00 97 1007.8
20190821214136 77 135 0.0 0.0 0.00 0.12 0.00 97 1007.8
20190821213134 77 135 0.0 0.0 0.00 0.12 0.00 97 1007.8
20190821212133 77 135 0.0 0.0 0.00 0.12 0.00 97 1007.8
20190821211026 77 135 0.0 0.0 0.00 0.12 0.00 97 1007.8
20190821210024 77 135 0.0 0.0 0.00 0.12 0.00 97 1007.8
20190821205022 77 135 0.0 0.0 0.00 0.12 0.00 97 1007.5
20190821203916 77 135 0.0 0.0 0.00 0.12 0.00 97 1007.8
20190821202914 77 135 0.0 0.0 0.00 0.12 0.00 97 1007.8
20190821201840 77 135 0.0 0.0 0.00 0.12 0.00 97 1007.8
20190821200806 77 135 0.0 0.0 0.00 0.12 0.00 97 1007.8
20190821195804 77 135 0.0 0.0 0.00 0.12 0.00 97 1007.8
20190821194803 77 135 0.0 0.0 0.00 0.12 0.00 97 1007.8
20190821193728 77 135 0.0 0.0 0.00 0.12 0.00 97 1008.1
20190821192517 76 135 0.0 0.0 0.00 0.12 0.00 97 1008.1
20190821191515 76 135 0.0 0.0 0.00 0.12 0.00 97 1007.8
20190821190513 77 135 0.0 0.0 0.00 0.12 0.00 97 1008.1
20190821185511 77 135 0.0 0.0 0.00 0.12 0.00 97 1008.1
20190821184437 77 135 0.0 0.0 0.00 0.12 0.00 97 1008.5
20190821183435 77 135 0.0 0.0 0.00 0.12 0.00 97 1008.1
20190821182433 77 90 0.0 0.0 0.00 0.12 0.00 96 1008.5
20190821181327 77 90 0.0 0.0 0.00 0.12 0.00 96 1008.5
20190821180253 77 90 0.0 0.0 0.00 0.12 0.00 96 1008.5
20190821175251 77 90 0.0 0.0 0.00 0.12 0.00 96 1008.5
20190821174249 77 90 0.0 0.0 0.00 0.12 0.00 96 1008.8
20190821173247 77 90 0.0 0.0 0.00 0.12 0.00 96 1008.8